This is the latest recevied weather packets stored in our database for station/object F4FEB-14. If no packets are shown the sender has not sent any weather packets the latest 10 day(s).
| Time | Temp. | Humidity | Pressure | Rain* | Wind** | Luminosity | Snow |
|---|---|---|---|---|---|---|---|
| 1777828955 | 18.89° C | 64% | 1015.4 hPa | 0 mm | - | - | - |
| 1777828652 | 19.44° C | 64% | 1015.5 hPa | 0 mm | - | - | - |
| 1777828349 | 20° C | 62% | 1015.5 hPa | 0 mm | - | - | - |
| 1777828049 | 20° C | 64% | 1015.5 hPa | 0 mm | - | - | - |
| 1777827747 | 20° C | 61% | 1015.6 hPa | 0 mm | - | - | - |
| 1777827144 | 20.56° C | 59% | 1015.7 hPa | 0 mm | - | - | - |
| 1777826541 | 20° C | 65% | 1015.9 hPa | 0 mm | - | - | - |
| 1777825638 | 18.89° C | 66% | 1015.9 hPa | 0 mm | - | - | - |
| 1777825035 | 19.44° C | 63% | 1015.8 hPa | 0 mm | - | - | - |
| 1777824731 | 18.33° C | 67% | 1015.9 hPa | 0 mm | - | - | - |
| 1777824126 | 18.33° C | 66% | 1016.1 hPa | 0 mm | - | - | - |
| 1777823523 | 18.33° C | 61% | 1016.2 hPa | 0 mm | - | - | - |
| 1777823221 | 18.33° C | 59% | 1016.4 hPa | 0 mm | - | - | - |
| 1777822919 | 18.89° C | 60% | 1016.3 hPa | 0 mm | - | - | - |
| 1777822315 | 18.33° C | 61% | 1016.4 hPa | 0 mm | - | - | - |
| 1777822014 | 17.78° C | 61% | 1016.4 hPa | 0 mm | - | - | - |
| 1777821713 | 17.78° C | 60% | 1016.4 hPa | 0 mm | - | - | - |
| 1777821409 | 17.22° C | 62% | 1016.5 hPa | 0 mm | - | - | - |
| 1777821108 | 17.22° C | 63% | 1016.6 hPa | 0 mm | - | - | - |
| 1777820806 | 16.67° C | 64% | 1016.7 hPa | 0 mm | - | - | - |
| 1777820202 | 16.11° C | 66% | 1017 hPa | 0 mm | - | - | - |
| 1777819901 | 16.11° C | 68% | 1017.1 hPa | 0 mm | - | - | - |
| 1777819600 | 16.11° C | 69% | 1017.3 hPa | 0 mm | - | - | - |
| 1777819299 | 16.11° C | 71% | 1017.4 hPa | 0 mm | - | - | - |
| 1777818998 | 16.11° C | 74% | 1017.8 hPa | 0 mm | - | - | - |
* Rain latest hour (hover to see other rain measurements)
** Current wind speed in m/s (hover to see current wind gust speed)